Time;durP1;ratioP1;P1;durP2;ratioP2;P2;SDS_P1;SDS_P2;PMS_P1;PMS_P2;Temp;Humidity;BMP_temperature;BMP_pressure;BME280_temperature;BME280_humidity;BME280_pressure;Samples;Min_cycle;Max_cycle;Signal;HPM_P1;HPM_P2
2022/09/09 00:00:27;;;;;;;24.17;14.15;;;14.80;99.90;;;;;;5031271;28;20460;-77
2022/09/09 00:03:25;;;;;;;19.23;13.50;;;14.80;99.90;;;;;;5031213;28;20056;-80
2022/09/09 00:06:22;;;;;;;21.33;13.32;;;14.80;99.90;;;;;;5013536;28;20136;-77
2022/09/09 00:09:28;;;;;;;28.00;14.23;;;14.80;99.90;;;;;;5031218;28;20172;-80
2022/09/09 00:12:22;;;;;;;27.77;15.05;;;14.70;99.90;;;;;;5030910;28;20060;-84
2022/09/09 00:15:13;;;;;;;18.75;12.15;;;14.80;99.90;;;;;;5014351;28;20140;-77
2022/09/09 00:18:17;;;;;;;22.45;12.93;;;14.80;99.90;;;;;;5030561;28;20482;-80
2022/09/09 00:21:17;;;;;;;24.13;13.90;;;14.80;99.90;;;;;;5029873;28;20445;-80
2022/09/09 00:24:44;;;;;;;17.73;12.50;;;14.70;99.90;;;;;;5029995;28;20049;-77
2022/09/09 00:27:39;;;;;;;20.80;11.05;;;14.70;99.90;;;;;;5003115;28;20501;-78
2022/09/09 00:30:31;;;;;;;;;;;14.70;99.90;;;;;;5012939;28;20053;-77
2022/09/09 00:33:22;;;;;;;15.20;10.75;;;14.70;99.90;;;;;;5031569;28;19929;-80
2022/09/09 00:36:22;;;;;;;21.77;13.52;;;14.60;99.90;;;;;;5031017;28;20045;-78
2022/09/09 00:39:20;;;;;;;20.17;12.88;;;14.60;99.90;;;;;;5015970;28;20107;-78
2022/09/09 00:42:09;;;;;;;19.17;12.35;;;14.60;99.90;;;;;;5013180;28;20089;-78
2022/09/09 00:44:55;;;;;;;21.60;13.02;;;14.60;99.90;;;;;;5030116;28;20612;-78
2022/09/09 00:47:51;;;;;;;20.13;11.95;;;14.60;99.90;;;;;;5029944;28;20049;-77
2022/09/09 00:51:00;;;;;;;19.98;13.32;;;14.60;99.90;;;;;;5030188;28;20386;-77
2022/09/09 00:54:13;;;;;;;19.52;12.75;;;14.50;99.90;;;;;;5013229;28;20386;-84
2022/09/09 00:57:24;;;;;;;20.48;12.52;;;14.50;99.90;;;;;;5030297;28;20421;-85
2022/09/09 01:00:24;;;;;;;17.92;12.43;;;14.50;99.90;;;;;;5030877;28;20045;-82
2022/09/09 01:03:48;;;;;;;17.42;11.27;;;14.40;99.90;;;;;;5029410;28;20045;-77
2022/09/09 01:06:36;;;;;;;16.27;10.52;;;14.40;99.90;;;;;;4968947;28;20419;-79
2022/09/09 01:09:52;;;;;;;22.25;14.30;;;14.40;99.90;;;;;;5017370;28;20057;-77
2022/09/09 01:12:48;;;;;;;23.60;12.50;;;14.40;99.90;;;;;;5029539;28;20057;-78
2022/09/09 01:15:35;;;;;;;18.25;12.50;;;14.40;99.90;;;;;;5015022;28;20061;-81
2022/09/09 01:18:26;;;;;;;18.48;12.55;;;14.40;99.90;;;;;;5029381;28;20521;-79
2022/09/09 01:21:21;;;;;;;20.35;13.15;;;14.40;99.90;;;;;;4998448;28;20061;-78
2022/09/09 01:24:17;;;;;;;17.52;12.20;;;14.40;99.90;;;;;;5029389;28;20540;-80
2022/09/09 01:27:05;;;;;;;26.05;12.52;;;14.40;99.90;;;;;;5029238;28;20051;-79
2022/09/09 01:29:53;;;;;;;17.52;11.00;;;14.30;99.90;;;;;;4998360;28;20049;-81
2022/09/09 01:32:43;;;;;;;20.33;12.65;;;14.30;99.90;;;;;;5014949;28;20057;-80
2022/09/09 01:36:00;;;;;;;19.90;12.70;;;14.30;99.90;;;;;;5012240;28;20054;-86
2022/09/09 01:38:46;;;;;;;21.98;11.25;;;14.30;99.90;;;;;;5029021;28;20041;-77
2022/09/09 01:41:33;;;;;;;16.70;11.88;;;14.30;99.90;;;;;;5030746;28;20056;-77
2022/09/09 01:44:20;;;;;;;22.58;12.63;;;14.30;99.90;;;;;;5033571;28;20099;-80
2022/09/09 01:47:06;;;;;;;19.30;11.85;;;14.30;99.90;;;;;;5033404;28;20096;-77
2022/09/09 01:49:52;;;;;;;14.15;10.43;;;14.30;99.90;;;;;;5033854;28;20508;-79
2022/09/09 01:52:39;;;;;;;21.00;13.63;;;14.40;99.90;;;;;;5034834;28;20115;-78
2022/09/09 01:55:53;;;;;;;20.92;12.45;;;14.30;99.90;;;;;;5033127;28;20111;-77
2022/09/09 01:58:39;;;;;;;18.80;12.95;;;14.40;99.90;;;;;;5032688;28;20050;-78
2022/09/09 02:01:47;;;;;;;20.63;14.13;;;14.30;99.90;;;;;;5018812;28;20085;-77
2022/09/09 02:05:21;;;;;;;18.67;12.27;;;14.30;99.90;;;;;;5016035;28;20132;-77
2022/09/09 02:08:11;;;;;;;25.50;13.05;;;14.30;99.90;;;;;;5016062;28;20064;-77
2022/09/09 02:11:22;;;;;;;19.02;12.93;;;14.20;99.90;;;;;;5033813;28;20053;-77
2022/09/09 02:14:16;;;;;;;18.20;11.75;;;14.30;99.90;;;;;;5015704;28;20053;-80
2022/09/09 02:17:09;;;;;;;22.38;12.35;;;14.30;99.90;;;;;;5033547;28;20049;-78
2022/09/09 02:20:07;;;;;;;22.42;13.02;;;14.30;99.90;;;;;;5018521;28;20069;-76
2022/09/09 02:22:55;;;;;;;25.08;13.85;;;14.20;99.90;;;;;;5033187;28;20049;-78
2022/09/09 02:25:44;;;;;;;21.50;13.90;;;14.30;99.90;;;;;;5032443;28;20080;-78
2022/09/09 02:28:33;;;;;;;17.85;11.27;;;14.20;99.90;;;;;;5032481;28;20489;-83
2022/09/09 02:31:22;;;;;;;19.05;13.38;;;14.20;99.90;;;;;;5032797;28;20049;-80
2022/09/09 02:34:10;;;;;;;22.75;12.95;;;14.20;99.90;;;;;;5014755;28;20049;-77
2022/09/09 02:36:59;;;;;;;19.70;12.23;;;14.20;99.90;;;;;;5032252;28;20057;-80
2022/09/09 02:39:46;;;;;;;16.02;10.90;;;14.20;99.90;;;;;;5032672;28;20055;-81
2022/09/09 02:42:43;;;;;;;16.17;11.07;;;14.20;99.90;;;;;;5001254;28;20049;-78
2022/09/09 02:45:57;;;;;;;22.95;13.88;;;14.20;99.90;;;;;;5014301;28;20540;-79
2022/09/09 02:49:13;;;;;;;18.13;12.15;;;14.20;99.90;;;;;;5032563;28;20082;-78
2022/09/09 02:52:08;;;;;;;17.77;12.00;;;14.20;99.90;;;;;;5015183;28;20045;-82
2022/09/09 02:55:02;;;;;;;23.95;12.50;;;14.20;99.90;;;;;;5033290;28;20501;-77
2022/09/09 02:57:49;;;;;;;19.63;11.70;;;14.10;99.90;;;;;;5015088;28;20056;-79
2022/09/09 03:00:36;;;;;;;25.55;14.10;;;14.10;99.90;;;;;;5033702;28;20304;-80
2022/09/09 03:03:23;;;;;;;19.10;13.15;;;14.10;99.90;;;;;;5014347;28;20049;-76
2022/09/09 03:06:09;;;;;;;16.63;12.02;;;14.10;99.90;;;;;;5033484;28;20088;-79
2022/09/09 03:09:00;;;;;;;20.58;11.43;;;14.10;99.90;;;;;;5031716;28;20144;-78
2022/09/09 03:11:46;;;;;;;20.50;12.32;;;14.10;99.90;;;;;;5000674;28;20191;-80
2022/09/09 03:14:32;;;;;;;17.70;11.68;;;14.00;99.90;;;;;;5000584;28;20099;-78
2022/09/09 03:17:19;;;;;;;15.48;10.00;;;14.00;99.90;;;;;;5031866;28;20049;-79
2022/09/09 03:20:05;;;;;;;18.85;12.23;;;14.10;99.90;;;;;;5032217;28;20064;-78
2022/09/09 03:22:56;;;;;;;15.43;10.48;;;14.10;99.90;;;;;;5032172;28;20406;-79
2022/09/09 03:25:56;;;;;;;15.70;10.82;;;14.10;99.90;;;;;;5013446;28;20135;-79
2022/09/09 03:28:44;;;;;;;20.17;12.70;;;14.10;99.90;;;;;;5018674;28;20060;-82
2022/09/09 03:31:30;;;;;;;19.70;12.95;;;14.10;99.90;;;;;;5031472;28;20485;-78
2022/09/09 03:34:16;;;;;;;16.45;10.30;;;14.00;99.90;;;;;;5013860;28;20049;-78
2022/09/09 03:37:02;;;;;;;19.45;12.63;;;14.00;99.90;;;;;;5031580;28;20053;-79
2022/09/09 03:39:49;;;;;;;19.33;12.43;;;14.00;99.90;;;;;;4987258;28;20080;-80
2022/09/09 03:42:36;;;;;;;13.90;9.80;;;14.00;99.90;;;;;;5031794;28;20397;-81
2022/09/09 03:45:22;;;;;;;24.58;12.68;;;14.00;99.90;;;;;;5012997;28;20088;-78
2022/09/09 03:48:11;;;;;;;16.20;11.18;;;14.00;99.90;;;;;;5031795;28;20096;-76
2022/09/09 03:51:00;;;;;;;17.60;11.40;;;13.90;99.90;;;;;;5031140;28;20049;-80
2022/09/09 03:53:46;;;;;;;18.95;12.57;;;13.90;99.90;;;;;;5031286;28;20053;-79
2022/09/09 03:56:32;;;;;;;18.95;12.63;;;13.90;99.90;;;;;;5030383;28;20046;-79
2022/09/09 03:59:20;;;;;;;15.68;12.02;;;13.90;99.90;;;;;;5016140;28;20049;-79
2022/09/09 04:02:06;;;;;;;22.38;11.55;;;14.00;99.90;;;;;;5030846;28;20085;-79
2022/09/09 04:04:52;;;;;;;22.27;12.68;;;13.90;99.90;;;;;;5012740;28;20528;-77
2022/09/09 04:07:38;;;;;;;17.55;11.15;;;13.90;99.90;;;;;;4999641;28;20053;-79
2022/09/09 04:10:25;;;;;;;18.20;12.15;;;13.90;99.90;;;;;;4986317;28;20172;-77
2022/09/09 04:13:12;;;;;;;18.85;11.85;;;14.00;99.90;;;;;;5030702;28;20052;-78
2022/09/09 04:16:00;;;;;;;18.70;12.80;;;13.90;99.90;;;;;;5030322;28;20536;-78
2022/09/09 04:18:47;;;;;;;19.83;12.98;;;14.00;99.90;;;;;;5030619;28;20516;-77
2022/09/09 04:21:33;;;;;;;19.85;12.98;;;13.90;99.90;;;;;;5030332;28;20111;-77
2022/09/09 04:24:20;;;;;;;17.55;12.13;;;14.00;99.90;;;;;;5030157;28;20628;-83
2022/09/09 04:27:06;;;;;;;23.15;14.57;;;14.00;99.90;;;;;;5030800;28;20053;-76
2022/09/09 04:29:52;;;;;;;25.42;13.18;;;14.00;99.90;;;;;;5030389;28;20053;-79
2022/09/09 04:32:39;;;;;;;19.27;13.32;;;14.00;99.90;;;;;;5030654;28;20049;-80
2022/09/09 04:35:27;;;;;;;18.63;12.25;;;14.10;99.90;;;;;;5030819;28;20061;-78
2022/09/09 04:38:13;;;;;;;17.85;12.60;;;14.10;99.90;;;;;;5030716;28;20052;-79
2022/09/09 04:40:59;;;;;;;24.55;13.52;;;14.10;99.90;;;;;;4999546;28;20413;-79
2022/09/09 04:43:45;;;;;;;22.40;13.70;;;14.20;99.90;;;;;;5029517;28;20049;-77
2022/09/09 04:46:34;;;;;;;21.10;14.43;;;14.20;99.90;;;;;;5029732;28;20053;-78
2022/09/09 04:49:20;;;;;;;19.55;13.20;;;14.30;99.90;;;;;;5031000;28;20071;-78
2022/09/09 04:52:06;;;;;;;21.85;13.82;;;14.30;99.90;;;;;;5000280;28;20053;-81
2022/09/09 04:54:53;;;;;;;25.83;15.10;;;14.30;99.90;;;;;;5031034;28;20049;-80
2022/09/09 04:57:40;;;;;;;20.02;14.27;;;14.30;99.90;;;;;;5015671;28;20045;-78
2022/09/09 05:00:26;;;;;;;21.15;14.13;;;14.30;99.90;;;;;;5026689;28;20049;-78
2022/09/09 05:03:13;;;;;;;17.25;12.63;;;14.30;99.90;;;;;;5021881;28;20054;-79
2022/09/09 05:06:08;;;;;;;26.27;15.05;;;14.30;99.90;;;;;;5009742;28;20496;-78
2022/09/09 05:08:54;;;;;;;24.25;13.75;;;14.40;99.90;;;;;;4994374;28;20125;-78
2022/09/09 05:11:40;;;;;;;24.42;15.40;;;14.30;99.90;;;;;;5021240;28;20041;-79
2022/09/09 05:14:28;;;;;;;24.70;14.18;;;14.30;99.90;;;;;;5022274;28;20053;-79
2022/09/09 05:17:16;;;;;;;24.80;15.75;;;14.30;99.90;;;;;;5021298;28;20045;-81
2022/09/09 05:20:03;;;;;;;26.17;14.10;;;14.30;99.90;;;;;;5020964;28;20112;-77
2022/09/09 05:22:53;;;;;;;21.33;13.40;;;14.30;99.90;;;;;;5009142;28;20049;-76
2022/09/09 05:25:42;;;;;;;23.88;14.00;;;14.30;99.90;;;;;;5020758;28;20045;-77
2022/09/09 05:28:29;;;;;;;23.50;14.15;;;14.30;99.90;;;;;;5033018;28;20049;-78
2022/09/09 05:31:16;;;;;;;23.20;12.68;;;14.30;99.90;;;;;;5029371;28;20057;-77
2022/09/09 05:34:03;;;;;;;23.08;12.90;;;14.40;99.90;;;;;;5015986;28;20407;-78
2022/09/09 05:36:49;;;;;;;22.70;14.07;;;14.40;99.90;;;;;;5010748;28;20049;-79
2022/09/09 05:39:36;;;;;;;23.08;14.43;;;14.40;99.90;;;;;;5015175;28;20115;-80
2022/09/09 05:42:23;;;;;;;26.70;14.60;;;14.50;99.90;;;;;;5029712;28;20089;-80
2022/09/09 05:45:09;;;;;;;23.50;14.18;;;14.50;99.90;;;;;;5012145;28;20136;-77
2022/09/09 05:47:57;;;;;;;23.98;14.15;;;14.50;99.90;;;;;;5030501;28;20115;-76
2022/09/09 05:50:44;;;;;;;20.42;13.15;;;14.50;99.90;;;;;;5015060;28;20140;-79
2022/09/09 05:53:34;;;;;;;24.13;14.25;;;14.50;99.90;;;;;;5011085;28;20628;-79
2022/09/09 05:56:23;;;;;;;22.80;14.98;;;14.50;99.90;;;;;;5030151;28;20572;-77
2022/09/09 05:59:10;;;;;;;23.73;14.60;;;14.60;99.90;;;;;;4999680;28;20136;-77
2022/09/09 06:01:56;;;;;;;29.13;14.93;;;14.60;99.90;;;;;;5029459;28;20084;-79
2022/09/09 06:04:42;;;;;;;17.67;11.32;;;14.60;99.90;;;;;;5029067;28;20051;-78
2022/09/09 06:07:28;;;;;;;30.95;14.32;;;14.60;99.90;;;;;;5015724;28;20127;-77
2022/09/09 06:10:14;;;;;;;15.98;12.02;;;14.60;99.90;;;;;;5028617;28;20052;-83
2022/09/09 06:13:01;;;;;;;20.13;13.30;;;14.60;99.90;;;;;;5011670;28;20053;-77
2022/09/09 06:15:53;;;;;;;18.38;13.27;;;14.70;99.90;;;;;;5029320;28;20136;-78
2022/09/09 06:18:40;;;;;;;20.58;13.57;;;14.70;99.90;;;;;;5028910;28;20144;-78
2022/09/09 06:21:27;;;;;;;19.60;13.10;;;14.70;99.90;;;;;;4985136;28;20053;-78
2022/09/09 06:24:17;;;;;;;18.02;13.75;;;14.70;99.90;;;;;;5028944;28;20095;-79
2022/09/09 06:27:05;;;;;;;23.73;13.50;;;14.70;99.90;;;;;;5029413;28;20045;-79
2022/09/09 06:29:51;;;;;;;16.83;11.52;;;14.70;99.90;;;;;;5015294;28;20063;-78
2022/09/09 06:32:37;;;;;;;20.83;13.55;;;14.70;99.90;;;;;;5033394;28;20068;-77
2022/09/09 06:35:24;;;;;;;22.77;13.75;;;14.70;99.90;;;;;;5032072;28;20208;-81
2022/09/09 06:38:10;;;;;;;17.02;12.52;;;14.80;99.90;;;;;;5014251;28;20417;-77
2022/09/09 06:40:59;;;;;;;17.48;12.95;;;14.80;99.90;;;;;;5017797;28;20057;-78
2022/09/09 06:43:46;;;;;;;24.45;13.38;;;14.80;99.90;;;;;;5015933;28;20124;-79
2022/09/09 06:46:33;;;;;;;19.65;12.95;;;14.90;99.90;;;;;;5014702;28;20092;-77
2022/09/09 06:49:19;;;;;;;25.67;14.40;;;14.90;99.90;;;;;;5032566;28;20049;-81
2022/09/09 06:52:06;;;;;;;21.77;13.23;;;15.00;99.90;;;;;;5014232;28;20045;-76
2022/09/09 06:54:53;;;;;;;19.77;13.48;;;15.00;99.90;;;;;;5014329;28;20080;-82
2022/09/09 06:57:39;;;;;;;21.48;12.00;;;15.10;99.90;;;;;;5013969;28;20089;-78
2022/09/09 07:00:25;;;;;;;20.27;13.70;;;15.20;99.90;;;;;;4995152;28;20046;-79
2022/09/09 07:03:12;;;;;;;19.67;13.88;;;15.30;99.90;;;;;;4995826;28;20088;-75
2022/09/09 07:05:59;;;;;;;26.23;13.68;;;15.40;99.90;;;;;;5019081;28;20513;-79
2022/09/09 07:08:59;;;;;;;16.65;11.68;;;15.50;99.90;;;;;;4997962;28;20544;-79
2022/09/09 07:11:48;;;;;;;18.10;11.45;;;15.70;99.90;;;;;;5014825;28;20100;-78
2022/09/09 07:14:37;;;;;;;19.25;12.30;;;15.70;99.90;;;;;;5027662;28;20045;-82
2022/09/09 07:17:23;;;;;;;18.38;11.52;;;15.70;99.90;;;;;;5032493;28;20132;-78
2022/09/09 07:20:10;;;;;;;18.60;12.40;;;15.70;99.90;;;;;;5032476;28;20053;-80
2022/09/09 07:22:56;;;;;;;16.10;10.98;;;15.70;99.90;;;;;;5013423;28;20054;-81
2022/09/09 07:25:47;;;;;;;16.63;11.43;;;15.70;99.90;;;;;;5012159;28;20111;-77
2022/09/09 07:28:34;;;;;;;17.23;11.75;;;15.70;99.90;;;;;;5002295;28;20089;-80
2022/09/09 07:31:23;;;;;;;15.75;11.23;;;15.80;99.90;;;;;;5008143;28;20113;-82
2022/09/09 07:34:09;;;;;;;13.82;10.45;;;15.80;99.90;;;;;;5007896;28;20048;-81
2022/09/09 07:36:57;;;;;;;17.92;10.55;;;15.80;99.90;;;;;;5006678;28;20057;-84
2022/09/09 07:39:44;;;;;;;17.77;11.25;;;15.80;99.90;;;;;;5006850;28;20045;-82
2022/09/09 07:42:30;;;;;;;15.68;10.38;;;15.80;99.90;;;;;;5011463;28;20084;-80
2022/09/09 07:45:16;;;;;;;22.92;12.32;;;15.90;99.90;;;;;;4986791;28;20112;-77
2022/09/09 07:48:03;;;;;;;17.75;10.45;;;15.90;99.90;;;;;;5007154;28;20104;-83
2022/09/09 07:50:49;;;;;;;12.77;9.40;;;15.90;99.90;;;;;;5013062;28;20126;-86
2022/09/09 07:53:38;;;;;;;14.63;9.25;;;15.90;99.90;;;;;;5011431;28;20372;-80
2022/09/09 07:56:27;;;;;;;15.20;9.90;;;16.00;99.90;;;;;;5010508;28;20092;-88
2022/09/09 07:59:13;;;;;;;13.73;9.98;;;16.20;99.90;;;;;;5013813;28;20042;-77
2022/09/09 08:01:59;;;;;;;16.92;10.02;;;16.40;99.90;;;;;;5010998;28;20157;-77
2022/09/09 08:04:46;;;;;;;14.20;9.15;;;16.60;99.90;;;;;;5011913;28;20761;-78
2022/09/09 08:07:34;;;;;;;11.60;8.25;;;16.90;99.90;;;;;;5010625;28;20137;-82
2022/09/09 08:10:21;;;;;;;12.00;8.63;;;17.10;99.90;;;;;;5008327;28;20136;-83
2022/09/09 08:13:08;;;;;;;14.13;8.43;;;17.20;99.90;;;;;;5008832;28;20368;-82
2022/09/09 08:15:55;;;;;;;13.10;8.57;;;17.30;99.90;;;;;;5010391;28;20053;-84
2022/09/09 08:18:42;;;;;;;12.48;7.65;;;17.50;99.90;;;;;;5006102;28;20050;-79
2022/09/09 08:21:30;;;;;;;13.38;8.27;;;17.80;99.90;;;;;;5008985;28;20057;-77
2022/09/09 08:24:16;;;;;;;15.02;8.25;;;17.90;99.90;;;;;;4998632;28;20050;-82
2022/09/09 08:27:03;;;;;;;13.55;7.85;;;17.90;99.90;;;;;;5010871;28;20125;-81
2022/09/09 08:29:51;;;;;;;11.98;7.72;;;17.80;99.90;;;;;;5005768;28;20046;-82
2022/09/09 08:32:37;;;;;;;10.82;7.13;;;17.80;99.90;;;;;;5007336;28;20115;-79
2022/09/09 08:35:24;;;;;;;12.43;6.68;;;17.90;99.90;;;;;;5031309;28;20050;-80
2022/09/09 08:38:10;;;;;;;10.40;6.68;;;18.00;99.90;;;;;;5018884;28;20045;-83
2022/09/09 08:41:10;;;;;;;8.68;6.43;;;17.90;99.90;;;;;;5002835;28;20057;-82
2022/09/09 08:44:11;;;;;;;11.55;6.60;;;17.80;99.90;;;;;;5018031;28;20053;-76
2022/09/09 08:47:24;;;;;;;9.55;6.38;;;17.80;99.90;;;;;;5033032;28;20508;-77
2022/09/09 08:50:24;;;;;;;12.02;6.50;;;17.80;99.90;;;;;;5017514;28;20084;-75
2022/09/09 08:53:22;;;;;;;12.65;7.00;;;17.80;99.90;;;;;;5017928;28;20041;-80
2022/09/09 08:56:18;;;;;;;10.88;5.75;;;17.90;99.90;;;;;;5031847;28;20057;-82
2022/09/09 08:59:05;;;;;;;10.77;5.88;;;18.00;99.90;;;;;;5013346;28;20060;-79
2022/09/09 09:02:02;;;;;;;11.38;6.55;;;18.20;99.90;;;;;;5023663;28;20049;-83
2022/09/09 09:05:20;;;;;;;9.60;5.38;;;18.20;99.90;;;;;;4994975;28;20050;-80
2022/09/09 09:08:30;;;;;;;13.07;5.88;;;18.40;99.90;;;;;;4994262;28;20054;-74
2022/09/09 09:11:17;;;;;;;11.55;6.00;;;18.60;99.90;;;;;;5010773;28;20096;-79
2022/09/09 09:14:18;;;;;;;10.82;6.28;;;18.70;99.90;;;;;;4995890;28;20042;-80
2022/09/09 09:17:15;;;;;;;13.93;6.22;;;18.70;99.90;;;;;;5010378;28;20114;-82
2022/09/09 09:20:03;;;;;;;11.40;5.18;;;18.80;99.90;;;;;;4995339;28;20131;-83
2022/09/09 09:22:52;;;;;;;9.40;4.85;;;18.80;99.90;;;;;;5011442;28;20136;-75
2022/09/09 09:25:42;;;;;;;12.90;4.82;;;18.90;99.90;;;;;;5010118;28;20101;-80
2022/09/09 09:28:33;;;;;;;12.73;5.65;;;18.90;99.90;;;;;;4996346;28;20046;-80
2022/09/09 09:31:20;;;;;;;11.95;5.68;;;19.10;99.90;;;;;;4984185;28;20059;-76
2022/09/09 09:34:10;;;;;;;14.05;4.85;;;19.20;99.90;;;;;;4971841;28;20054;-78
2022/09/09 09:37:01;;;;;;;10.48;5.68;;;19.40;99.90;;;;;;4969046;28;20043;-76
2022/09/09 09:39:48;;;;;;;8.40;4.45;;;19.50;99.90;;;;;;4989159;28;20049;-76
2022/09/09 09:42:35;;;;;;;11.38;5.05;;;19.80;99.90;;;;;;4990751;28;20061;-83
2022/09/09 09:45:32;;;;;;;11.32;5.10;;;19.90;99.90;;;;;;4973323;28;20138;-76
2022/09/09 09:48:19;;;;;;;7.90;4.13;;;20.10;99.90;;;;;;4970362;28;20050;-81
2022/09/09 09:51:10;;;;;;;8.13;5.13;;;20.10;99.90;;;;;;4971599;28;20139;-75
2022/09/09 09:54:23;;;;;;;10.25;4.35;;;20.00;99.90;;;;;;4969991;28;20058;-81
2022/09/09 09:57:15;;;;;;;12.10;4.85;;;19.80;99.90;;;;;;4971486;28;20053;-76
2022/09/09 10:00:18;;;;;;;9.02;3.92;;;19.80;99.90;;;;;;4970802;28;20058;-75
2022/09/09 10:03:24;;;;;;;9.27;4.10;;;19.80;99.90;;;;;;4975321;28;20059;-78
2022/09/09 10:06:10;;;;;;;7.70;4.10;;;19.90;99.90;;;;;;4978471;28;20043;-77
2022/09/09 10:08:56;;;;;;;7.03;3.50;;;19.80;99.90;;;;;;4974101;28;20055;-78
2022/09/09 10:12:28;;;;;;;7.03;2.78;;;19.60;99.90;;;;;;4975450;28;20055;-77
2022/09/09 10:15:39;;;;;;;11.00;3.40;;;19.40;99.90;;;;;;4976452;28;20097;-78
2022/09/09 10:18:57;;;;;;;11.18;3.17;;;19.40;99.90;;;;;;4973853;28;20053;-77
2022/09/09 10:21:57;;;;;;;8.98;2.78;;;19.40;99.90;;;;;;4962487;28;20047;-76
2022/09/09 10:25:09;;;;;;;9.93;2.60;;;19.20;99.90;;;;;;4974737;28;20082;-80
2022/09/09 10:28:17;;;;;;;8.13;2.70;;;19.10;99.90;;;;;;4974966;28;20062;-86
2022/09/09 10:31:19;;;;;;;12.35;2.60;;;19.20;99.90;;;;;;5004090;28;20137;-82
2022/09/09 10:34:33;;;;;;;10.95;3.10;;;19.20;99.90;;;;;;5003059;28;20514;-76
2022/09/09 10:37:48;;;;;;;11.13;3.08;;;19.20;99.90;;;;;;5019034;28;20089;-78
2022/09/09 10:40:42;;;;;;;12.02;2.80;;;19.30;99.90;;;;;;5001076;28;20053;-80
2022/09/09 10:43:50;;;;;;;13.30;2.85;;;19.30;99.90;;;;;;5022697;28;20143;-79
2022/09/09 10:47:32;;;;;;;11.27;2.90;;;19.50;99.90;;;;;;5023255;28;20045;-77
2022/09/09 10:50:39;;;;;;;11.50;2.83;;;19.70;99.90;;;;;;4962888;28;20555;-79
2022/09/09 10:54:00;;;;;;;8.88;2.30;;;19.80;99.90;;;;;;5027168;28;20164;-79
2022/09/09 10:56:53;;;;;;;9.38;2.97;;;19.90;99.90;;;;;;5031147;28;20045;-83
2022/09/09 10:59:48;;;;;;;9.88;3.33;;;19.70;99.90;;;;;;5034418;28;20041;-77
2022/09/09 11:02:41;;;;;;;10.38;2.20;;;19.50;99.90;;;;;;5034652;28;20410;-88
2022/09/09 11:05:52;;;;;;;10.73;2.80;;;19.40;99.90;;;;;;5017530;28;20053;-76
2022/09/09 11:08:39;;;;;;;6.72;2.10;;;19.60;99.90;;;;;;5019304;28;20102;-76
2022/09/09 11:11:34;;;;;;;10.90;2.00;;;20.40;99.90;;;;;;5033439;28;20045;-76
2022/09/09 11:15:01;;;;;;;8.95;1.67;;;20.90;99.90;;;;;;5031458;28;20045;-78
2022/09/09 11:17:56;;;;;;;6.00;1.60;;;21.30;99.90;;;;;;5013566;28;20151;-75
2022/09/09 11:20:45;;;;;;;8.10;2.08;;;21.20;99.90;;;;;;5013691;28;20045;-80
2022/09/09 11:23:45;;;;;;;7.78;1.65;;;21.50;99.90;;;;;;5033053;28;20046;-83
2022/09/09 11:26:47;;;;;;;5.10;1.73;;;21.90;99.90;;;;;;5032227;28;20505;-80
2022/09/09 11:29:55;;;;;;;7.25;2.63;;;22.10;99.90;;;;;;5027107;28;20143;-72
2022/09/09 11:32:58;;;;;;;4.63;1.52;;;22.30;99.90;;;;;;5023495;28;20046;-75
2022/09/09 11:36:03;;;;;;;7.75;2.22;;;22.60;99.90;;;;;;5022760;28;20049;-74
2022/09/09 11:38:59;;;;;;;6.20;1.55;;;23.00;99.90;;;;;;5023743;28;20046;-80
2022/09/09 11:41:45;;;;;;;6.63;1.70;;;23.10;99.90;;;;;;5006538;28;20052;-78
2022/09/09 11:44:32;;;;;;;7.65;1.80;;;23.60;99.90;;;;;;4998629;28;20045;-77
2022/09/09 11:47:26;;;;;;;6.80;1.60;;;23.40;99.90;;;;;;5024759;28;20401;-80
2022/09/09 11:50:15;;;;;;;7.30;1.80;;;23.30;99.90;;;;;;5025727;28;20045;-80
2022/09/09 11:53:20;;;;;;;7.78;1.75;;;23.20;99.90;;;;;;5022782;28;20050;-78
2022/09/09 11:56:23;;;;;;;6.57;1.73;;;22.80;99.90;;;;;;5019833;28;20049;-85
2022/09/09 11:59:24;;;;;;;9.32;1.90;;;22.50;99.90;;;;;;4985015;28;20045;-76
2022/09/09 12:02:24;;;;;;;8.15;2.08;;;22.70;99.90;;;;;;5000185;28;20060;-75
2022/09/09 12:05:13;;;;;;;8.68;1.88;;;23.00;99.90;;;;;;5013267;28;20049;-78
2022/09/09 12:08:03;;;;;;;8.90;2.00;;;23.00;99.90;;;;;;5013313;28;20401;-77
2022/09/09 12:10:59;;;;;;;6.03;2.45;;;22.70;99.90;;;;;;5012297;28;20561;-78
2022/09/09 12:13:54;;;;;;;7.60;2.10;;;22.50;99.90;;;;;;5012715;28;20068;-80
2022/09/09 12:16:43;;;;;;;5.53;1.40;;;22.40;99.90;;;;;;5012769;28;20050;-77
2022/09/09 12:19:29;;;;;;;7.47;1.95;;;22.20;99.90;;;;;;5013275;28;20082;-82
2022/09/09 12:22:41;;;;;;;8.98;1.73;;;22.00;99.90;;;;;;4993920;28;20119;-81
2022/09/09 12:25:57;;;;;;;4.07;1.20;;;22.00;99.90;;;;;;4995081;28;20042;-81
2022/09/09 12:28:52;;;;;;;;;;;21.80;99.90;;;;;;5022318;28;20478;-85
2022/09/09 12:31:46;;;;;;;4.15;1.20;;;21.70;99.90;;;;;;5031264;28;19927;-84
2022/09/09 12:34:41;;;;;;;7.00;1.55;;;21.80;99.90;;;;;;5032229;28;20050;-86
2022/09/09 12:37:48;;;;;;;7.95;1.52;;;21.80;99.90;;;;;;5030307;28;20045;-77
2022/09/09 12:40:36;;;;;;;5.45;1.45;;;22.30;99.90;;;;;;5034506;28;20451;-83
2022/09/09 12:43:24;;;;;;;9.07;2.15;;;23.70;99.90;;;;;;5033472;28;20045;-83
2022/09/09 12:46:36;;;;;;;7.28;1.80;;;24.60;98.70;;;;;;5016749;28;20045;-77
2022/09/09 12:49:36;;;;;;;9.73;1.70;;;25.20;98.60;;;;;;5016727;28;20100;-82
2022/09/09 12:52:35;;;;;;;9.90;1.85;;;24.80;97.20;;;;;;5035095;28;20096;-82
2022/09/09 12:55:27;;;;;;;5.60;1.58;;;24.20;97.70;;;;;;5033159;28;20520;-83
2022/09/09 12:58:17;;;;;;;6.35;1.20;;;23.90;98.20;;;;;;5031957;28;20100;-81
2022/09/09 13:01:05;;;;;;;7.00;1.65;;;24.30;98.70;;;;;;5030030;28;20088;-79
2022/09/09 13:03:53;;;;;;;7.50;1.40;;;25.70;97.50;;;;;;5013120;28;20524;-81
2022/09/09 13:06:39;;;;;;;7.75;1.65;;;26.30;95.20;;;;;;5016172;28;20052;-83
2022/09/09 13:09:26;;;;;;;6.25;1.30;;;27.30;94.50;;;;;;5012831;28;20457;-81
2022/09/09 13:12:23;;;;;;;4.93;1.58;;;27.20;94.20;;;;;;5030518;28;20124;-79
2022/09/09 13:15:20;;;;;;;5.18;1.42;;;27.90;94.00;;;;;;5016283;28;20470;-80
2022/09/09 13:18:12;;;;;;;4.70;1.27;;;28.70;92.20;;;;;;5030467;28;20148;-83
2022/09/09 13:20:58;;;;;;;5.32;1.30;;;28.60;92.30;;;;;;4999380;28;20053;-82
2022/09/09 13:23:50;;;;;;;9.55;1.77;;;28.60;92.60;;;;;;5029200;28;20089;-83
2022/09/09 13:26:38;;;;;;;6.00;1.20;;;28.80;92.30;;;;;;5008455;28;20058;-80
2022/09/09 13:29:24;;;;;;;13.80;1.77;;;29.50;91.50;;;;;;5015021;28;20081;-82
2022/09/09 13:32:17;;;;;;;10.73;2.47;;;28.80;91.30;;;;;;5032749;28;20650;-89
2022/09/09 13:35:04;;;;;;;10.85;1.70;;;27.40;92.40;;;;;;5012336;28;20375;-80
2022/09/09 13:37:50;;;;;;;10.40;1.75;;;26.90;93.30;;;;;;5028372;28;20041;-82
2022/09/09 13:40:38;;;;;;;6.82;1.55;;;26.90;93.60;;;;;;5011484;28;20057;-76
2022/09/09 13:43:26;;;;;;;9.20;1.85;;;26.60;93.80;;;;;;4998790;28;20072;-77
2022/09/09 13:46:30;;;;;;;7.53;1.77;;;26.00;94.10;;;;;;5028925;28;20064;-81
2022/09/09 13:49:19;;;;;;;7.85;1.60;;;25.70;94.70;;;;;;5029883;28;20088;-77
2022/09/09 13:52:19;;;;;;;7.85;1.75;;;25.10;94.80;;;;;;5021349;28;20140;-77
2022/09/09 13:55:07;;;;;;;4.40;1.30;;;24.70;95.30;;;;;;5029349;28;20041;-78
2022/09/09 13:57:55;;;;;;;7.95;1.35;;;24.20;95.80;;;;;;5029436;28;20095;-84
2022/09/09 14:00:43;;;;;;;6.70;1.65;;;23.90;96.40;;;;;;5029886;28;20053;-78
2022/09/09 14:03:30;;;;;;;5.85;1.27;;;23.70;96.80;;;;;;5029448;28;20045;-77
2022/09/09 14:06:17;;;;;;;8.70;2.05;;;23.50;97.10;;;;;;5009292;28;20038;-80
2022/09/09 14:09:04;;;;;;;4.38;1.48;;;23.30;97.70;;;;;;5009254;28;20513;-78
2022/09/09 14:11:50;;;;;;;8.98;1.42;;;23.20;98.10;;;;;;5008871;28;20046;-78
2022/09/09 14:14:36;;;;;;;6.82;1.80;;;22.90;98.50;;;;;;5010015;28;20132;-77
2022/09/09 14:17:27;;;;;;;13.43;2.83;;;22.60;98.80;;;;;;5009654;28;20049;-81
2022/09/09 14:20:15;;;;;;;7.75;2.20;;;22.00;99.90;;;;;;5010777;28;20524;-82
2022/09/09 14:23:01;;;;;;;5.85;1.63;;;21.40;99.90;;;;;;5011020;28;20046;-78
2022/09/09 14:25:47;;;;;;;7.18;1.83;;;22.20;99.90;;;;;;5009873;28;20142;-81
2022/09/09 14:28:34;;;;;;;6.75;2.08;;;22.70;99.90;;;;;;5008492;28;20050;-86
2022/09/09 14:31:21;;;;;;;7.60;1.40;;;22.80;99.90;;;;;;5009386;28;20493;-84
2022/09/09 14:34:08;;;;;;;6.70;1.33;;;24.70;99.90;;;;;;5009118;28;20050;-79
2022/09/09 14:36:55;;;;;;;5.93;1.27;;;24.20;99.30;;;;;;5008506;28;20054;-82
2022/09/09 14:39:43;;;;;;;6.40;1.52;;;23.50;99.60;;;;;;5008997;28;20494;-84
2022/09/09 14:42:30;;;;;;;6.63;1.80;;;22.90;99.90;;;;;;5009779;28;20422;-77
2022/09/09 14:45:16;;;;;;;6.10;1.67;;;22.50;99.90;;;;;;5007816;28;20137;-82